createdAt,value
2023-04-18T00:00:40.891Z,21.40
2023-04-18T00:03:11.848Z,21.39
2023-04-18T00:05:42.095Z,21.43
2023-04-18T00:08:12.207Z,21.39
2023-04-18T00:10:42.601Z,21.40
2023-04-18T00:13:13.293Z,21.40
2023-04-18T00:15:45.080Z,21.42
2023-04-18T00:18:19.886Z,21.46
2023-04-18T00:20:49.953Z,21.42
2023-04-18T00:23:22.597Z,21.39
2023-04-18T00:25:52.748Z,21.40
2023-04-18T00:28:22.729Z,21.37
2023-04-18T00:30:52.943Z,21.32
2023-04-18T00:33:22.958Z,21.30
2023-04-18T00:35:55.780Z,21.33
2023-04-18T00:38:25.777Z,21.33
2023-04-18T00:40:55.925Z,21.34
2023-04-18T00:43:26.110Z,21.33
2023-04-18T00:45:58.131Z,21.27
2023-04-18T00:48:28.234Z,21.25
2023-04-18T00:51:00.045Z,21.23
2023-04-18T00:53:30.696Z,21.22
2023-04-18T00:56:00.788Z,21.23
2023-04-18T00:58:32.344Z,21.23
2023-04-18T01:01:02.526Z,21.23
2023-04-18T01:03:34.069Z,21.25
2023-04-18T01:06:04.609Z,21.26
2023-04-18T01:08:35.967Z,21.23
2023-04-18T01:11:06.172Z,21.23
2023-04-18T01:13:35.967Z,21.22
2023-04-18T01:16:06.670Z,21.20
2023-04-18T01:18:38.237Z,21.15
2023-04-18T01:21:09.800Z,21.10
2023-04-18T01:23:40.512Z,21.05
2023-04-18T01:26:10.627Z,21.00
2023-04-18T01:28:42.617Z,21.05
2023-04-18T01:31:12.814Z,21.07
2023-04-18T01:33:43.559Z,21.09
2023-04-18T01:36:13.563Z,21.13
2023-04-18T01:38:43.466Z,21.15
2023-04-18T01:41:13.686Z,21.13
2023-04-18T01:43:45.112Z,21.13
2023-04-18T01:46:15.355Z,21.10
2023-04-18T01:48:45.356Z,21.16
2023-04-18T01:51:15.657Z,21.15
2023-04-18T01:53:45.728Z,21.13
2023-04-18T01:56:15.805Z,21.10
2023-04-18T01:58:47.651Z,21.10
2023-04-18T02:01:17.742Z,21.06
2023-04-18T02:03:48.268Z,21.05
2023-04-18T02:06:18.491Z,21.03
2023-04-18T02:08:50.578Z,21.03
2023-04-18T02:11:20.786Z,21.07
2023-04-18T02:13:50.807Z,21.09
2023-04-18T02:16:20.879Z,21.09
2023-04-18T02:18:53.753Z,21.05
2023-04-18T02:21:23.998Z,21.06
2023-04-18T02:23:54.920Z,21.06
2023-04-18T02:26:25.104Z,21.03
2023-04-18T02:28:55.246Z,20.98
2023-04-18T02:31:25.258Z,21.02
2023-04-18T02:33:55.270Z,21.00
2023-04-18T02:36:27.295Z,20.99
2023-04-18T02:38:57.312Z,20.98
2023-04-18T02:41:27.209Z,21.06
2023-04-18T02:43:57.129Z,21.07
2023-04-18T02:46:27.727Z,21.07
2023-04-18T02:48:58.018Z,21.09
2023-04-18T02:51:29.244Z,21.10
2023-04-18T02:54:01.733Z,21.13
2023-04-18T02:56:41.323Z,21.07
2023-04-18T02:59:46.589Z,20.96
2023-04-18T03:02:19.937Z,20.88
2023-04-18T03:04:55.596Z,20.75
2023-04-18T03:07:26.924Z,20.67
2023-04-18T03:09:57.166Z,20.63
2023-04-18T03:12:32.226Z,20.67
2023-04-18T03:15:02.942Z,20.59
2023-04-18T03:17:34.179Z,20.63
2023-04-18T03:20:04.436Z,20.59
2023-04-18T03:22:34.468Z,20.54
2023-04-18T03:25:04.424Z,20.63
2023-04-18T03:27:47.496Z,20.61
2023-04-18T03:30:19.803Z,20.57
2023-04-18T03:32:57.666Z,20.58
2023-04-18T03:35:27.728Z,20.47
2023-04-18T03:37:58.508Z,20.47
2023-04-18T03:40:32.721Z,20.55
2023-04-18T03:43:09.578Z,20.57
2023-04-18T03:45:39.697Z,20.51
2023-04-18T03:48:09.863Z,20.45
2023-04-18T03:50:44.416Z,20.38
2023-04-18T03:53:15.584Z,20.48
2023-04-18T03:55:45.828Z,20.45
2023-04-18T03:58:24.592Z,20.38
2023-04-18T04:00:55.494Z,20.27
2023-04-18T04:03:26.387Z,20.16
2023-04-18T04:05:57.096Z,20.18
2023-04-18T04:08:28.247Z,20.18
2023-04-18T04:10:58.348Z,20.06
2023-04-18T04:13:29.031Z,20.09
2023-04-18T04:15:59.666Z,20.01
2023-04-18T04:18:32.804Z,20.01
2023-04-18T04:21:05.313Z,20.01
2023-04-18T04:23:55.493Z,20.03
2023-04-18T04:26:44.681Z,20.07
2023-04-18T04:29:22.654Z,20.01
2023-04-18T04:31:52.931Z,19.98
2023-04-18T04:34:35.623Z,19.92
2023-04-18T04:37:07.983Z,20.00
2023-04-18T04:39:44.924Z,20.01
2023-04-18T04:42:32.870Z,19.90
2023-04-18T04:45:11.574Z,19.94
2023-04-18T04:47:41.680Z,19.97
2023-04-18T04:50:16.562Z,19.98
2023-04-18T04:52:47.080Z,20.00
2023-04-18T04:55:18.625Z,19.97
2023-04-18T04:57:49.021Z,19.97
2023-04-18T05:00:33.581Z,20.01
2023-04-18T05:03:03.903Z,20.00
2023-04-18T05:05:34.075Z,20.00
2023-04-18T05:08:04.962Z,19.92
2023-04-18T05:10:39.017Z,19.83
2023-04-18T05:13:10.037Z,19.72
2023-04-18T05:15:40.972Z,19.77
2023-04-18T05:18:11.155Z,19.73
2023-04-18T05:20:41.335Z,19.75
2023-04-18T05:23:11.393Z,19.77
2023-04-18T05:25:41.697Z,19.76
2023-04-18T05:28:11.688Z,19.77
2023-04-18T05:30:42.136Z,19.82
2023-04-18T05:33:12.661Z,19.79
2023-04-18T05:35:42.654Z,19.80
2023-04-18T05:38:12.432Z,19.79
2023-04-18T05:40:43.587Z,19.77
2023-04-18T05:43:13.539Z,19.72
2023-04-18T05:45:43.376Z,19.73
2023-04-18T05:48:13.795Z,19.73
2023-04-18T05:50:43.842Z,19.73
2023-04-18T05:53:13.812Z,19.75
2023-04-18T05:55:43.774Z,19.69
2023-04-18T05:58:13.820Z,19.72
2023-04-18T06:00:44.943Z,19.70
2023-04-18T06:03:15.152Z,19.67
2023-04-18T06:05:45.448Z,19.65
2023-04-18T06:08:15.525Z,19.63
2023-04-18T06:10:46.465Z,19.58
2023-04-18T06:13:16.457Z,19.52
2023-04-18T06:15:46.597Z,19.44
2023-04-18T06:18:16.587Z,19.36
2023-04-18T06:20:46.687Z,19.28
2023-04-18T06:23:17.871Z,19.21
2023-04-18T06:25:47.916Z,19.17
2023-04-18T06:28:17.933Z,19.12
2023-04-18T06:30:48.029Z,19.07
2023-04-18T06:33:18.077Z,19.04
2023-04-18T06:35:47.944Z,19.06
2023-04-18T06:38:18.726Z,19.03
2023-04-18T06:40:48.680Z,19.06
2023-04-18T06:43:18.473Z,19.04
2023-04-18T06:45:48.529Z,19.07
2023-04-18T06:48:18.501Z,19.10
2023-04-18T06:50:49.050Z,19.14
2023-04-18T06:53:19.279Z,19.14
2023-04-18T06:55:49.392Z,19.18
2023-04-18T06:58:19.424Z,19.19
2023-04-18T07:00:53.015Z,19.19
2023-04-18T07:03:23.128Z,19.19
2023-04-18T07:05:53.513Z,19.14
2023-04-18T07:08:23.486Z,19.18
2023-04-18T07:10:53.588Z,19.21
2023-04-18T07:13:23.733Z,19.21
2023-04-18T07:15:54.503Z,19.22
2023-04-18T07:18:36.748Z,19.21
2023-04-18T07:21:11.256Z,19.22
2023-04-18T07:23:42.720Z,19.22
2023-04-18T07:26:14.511Z,19.15
2023-04-18T07:28:44.667Z,19.06
2023-04-18T07:31:15.573Z,19.01
2023-04-18T07:33:45.724Z,18.98
2023-04-18T07:36:15.596Z,19.01
2023-04-18T07:38:45.651Z,19.10
2023-04-18T07:41:15.937Z,19.07
2023-04-18T07:43:46.007Z,19.12
2023-04-18T07:46:16.187Z,19.14
2023-04-18T07:48:47.423Z,19.10
2023-04-18T07:51:17.428Z,19.06
2023-04-18T07:53:47.595Z,19.14
2023-04-18T07:56:17.598Z,19.18
2023-04-18T07:58:47.568Z,19.18
2023-04-18T08:01:19.680Z,19.18
2023-04-18T08:03:49.797Z,19.18
2023-04-18T08:06:20.049Z,19.21
2023-04-18T08:08:50.052Z,19.17
2023-04-18T08:11:20.058Z,19.19
2023-04-18T08:13:50.258Z,19.22
2023-04-18T08:16:20.363Z,19.19
2023-04-18T08:18:50.411Z,19.12
2023-04-18T08:21:21.160Z,19.12
2023-04-18T08:23:51.156Z,19.12
2023-04-18T08:26:21.269Z,19.10
2023-04-18T08:28:52.169Z,19.03
2023-04-18T08:31:22.386Z,19.01
2023-04-18T08:33:52.712Z,18.98
2023-04-18T08:36:22.725Z,19.00
2023-04-18T08:38:52.502Z,18.97
2023-04-18T08:41:24.821Z,18.97
2023-04-18T08:43:56.975Z,18.98
2023-04-18T08:46:28.089Z,18.97
2023-04-18T08:49:00.304Z,18.96
2023-04-18T08:51:31.814Z,19.00
2023-04-18T08:54:05.480Z,18.91
2023-04-18T08:56:38.552Z,18.88
2023-04-18T08:59:09.153Z,18.83
2023-04-18T09:02:02.550Z,18.90
2023-04-18T09:04:37.075Z,18.83
2023-04-18T09:07:12.690Z,18.83
2023-04-18T09:09:56.066Z,18.77
2023-04-18T09:12:29.430Z,18.78
2023-04-18T09:15:12.095Z,18.81
2023-04-18T09:17:46.539Z,18.78
2023-04-18T09:20:45.748Z,18.83
2023-04-18T09:23:25.688Z,18.77
2023-04-18T09:25:55.664Z,18.74
2023-04-18T09:28:34.232Z,18.76
2023-04-18T09:31:12.984Z,18.76
2023-04-18T09:33:56.150Z,18.73
2023-04-18T09:36:28.708Z,18.71
2023-04-18T09:38:58.952Z,18.66
2023-04-18T09:41:29.142Z,18.56
2023-04-18T09:44:18.767Z,18.55
2023-04-18T09:46:50.879Z,18.52
2023-04-18T09:49:21.364Z,18.53
2023-04-18T09:51:54.925Z,18.55
2023-04-18T09:54:26.615Z,18.50
2023-04-18T09:56:57.746Z,18.50
2023-04-18T09:59:54.288Z,18.50
2023-04-18T10:02:25.875Z,18.50
2023-04-18T10:04:57.275Z,18.49
2023-04-18T10:07:28.805Z,18.50
2023-04-18T10:09:58.795Z,18.50
2023-04-18T10:12:29.117Z,18.50
2023-04-18T10:15:00.418Z,18.52
2023-04-18T10:17:30.471Z,18.49
2023-04-18T10:20:14.265Z,18.50
2023-04-18T10:22:44.457Z,18.43
2023-04-18T10:25:14.882Z,18.43
2023-04-18T10:27:50.523Z,18.42
2023-04-18T10:30:21.622Z,18.52
2023-04-18T10:32:56.541Z,18.53
2023-04-18T10:35:26.839Z,18.52
2023-04-18T10:38:01.072Z,18.66
2023-04-18T10:40:37.014Z,18.87
2023-04-18T10:43:07.999Z,18.93
2023-04-18T10:45:38.284Z,18.98
2023-04-18T10:48:38.534Z,18.98
2023-04-18T10:51:20.444Z,19.06
2023-04-18T10:54:02.879Z,19.08
2023-04-18T10:56:36.008Z,19.11
2023-04-18T10:59:07.021Z,19.21
2023-04-18T11:01:39.537Z,19.34
2023-04-18T11:04:13.982Z,19.51
2023-04-18T11:06:52.733Z,19.35
2023-04-18T11:09:23.706Z,19.29
2023-04-18T11:12:11.867Z,19.41
2023-04-18T11:14:45.708Z,19.62
2023-04-18T11:17:23.121Z,19.79
2023-04-18T11:20:01.805Z,19.96
2023-04-18T11:22:32.290Z,20.12
2023-04-18T11:25:24.241Z,20.07
2023-04-18T11:27:56.243Z,20.16
2023-04-18T11:30:26.503Z,20.31
2023-04-18T11:32:57.912Z,20.47
2023-04-18T11:35:28.053Z,20.55
2023-04-18T11:37:58.229Z,20.65
2023-04-18T11:40:28.319Z,20.86
2023-04-18T11:42:58.353Z,20.86
2023-04-18T11:45:28.598Z,20.96
2023-04-18T11:48:00.367Z,20.59
2023-04-18T11:50:37.041Z,20.26
2023-04-18T11:53:07.298Z,20.47
2023-04-18T11:55:37.722Z,20.43
2023-04-18T11:58:08.265Z,20.59
2023-04-18T12:00:40.661Z,20.81
2023-04-18T12:03:18.111Z,20.67
2023-04-18T12:05:48.670Z,20.69
2023-04-18T12:08:22.697Z,21.18
2023-04-18T12:10:55.883Z,21.25
2023-04-18T12:13:33.660Z,21.58
2023-04-18T12:16:04.409Z,21.46
2023-04-18T12:18:34.422Z,21.42
2023-04-18T12:21:07.005Z,21.84
2023-04-18T12:23:44.004Z,23.11
2023-04-18T12:26:16.275Z,22.86
2023-04-18T12:28:54.064Z,22.42
2023-04-18T12:31:24.268Z,22.04
2023-04-18T12:33:55.601Z,21.78
2023-04-18T12:36:29.539Z,22.06
2023-04-18T12:38:59.546Z,22.73
2023-04-18T12:41:29.844Z,23.31
2023-04-18T12:43:59.864Z,23.75
2023-04-18T12:46:29.769Z,23.76
2023-04-18T12:49:00.787Z,24.26
2023-04-18T12:51:30.788Z,23.83
2023-04-18T12:54:01.010Z,24.91
2023-04-18T12:56:31.001Z,24.99
2023-04-18T12:59:01.198Z,24.23
2023-04-18T13:01:31.396Z,24.72
2023-04-18T13:04:11.481Z,23.76
2023-04-18T13:06:42.690Z,23.73
2023-04-18T13:09:13.268Z,24.41
2023-04-18T13:11:43.654Z,24.23
2023-04-18T13:14:13.795Z,24.00
2023-04-18T13:16:44.247Z,23.57
2023-04-18T13:19:14.423Z,23.52
2023-04-18T13:21:44.531Z,24.71
2023-04-18T13:24:14.560Z,23.62
2023-04-18T13:26:44.535Z,24.88
2023-04-18T13:29:14.838Z,25.14
2023-04-18T13:31:45.029Z,24.30
2023-04-18T13:34:16.097Z,24.60
2023-04-18T13:36:46.136Z,24.44
2023-04-18T13:39:16.824Z,23.81
2023-04-18T13:41:47.010Z,24.61
2023-04-18T13:44:17.979Z,24.99
2023-04-18T13:46:48.166Z,24.95
2023-04-18T13:49:18.188Z,24.74
2023-04-18T13:51:48.277Z,24.10
2023-04-18T13:54:19.064Z,23.99
2023-04-18T13:56:49.977Z,24.63
2023-04-18T13:59:20.114Z,25.35
2023-04-18T14:01:50.390Z,24.71
2023-04-18T14:04:23.536Z,25.47
2023-04-18T14:06:53.679Z,26.42
2023-04-18T14:09:23.988Z,27.57
2023-04-18T14:11:54.707Z,27.57
2023-04-18T14:14:24.892Z,27.69
2023-04-18T14:16:55.231Z,26.65
2023-04-18T14:19:25.343Z,26.31
2023-04-18T14:21:55.742Z,26.97
2023-04-18T14:24:25.770Z,27.61
2023-04-18T14:26:55.989Z,27.61
2023-04-18T14:29:25.830Z,28.45
2023-04-18T14:31:55.810Z,28.90
2023-04-18T14:34:26.027Z,28.64
2023-04-18T14:36:56.081Z,28.10
2023-04-18T14:39:26.137Z,27.84
2023-04-18T14:41:56.377Z,27.14
2023-04-18T14:44:26.680Z,28.23
2023-04-18T14:46:56.897Z,27.40
2023-04-18T14:49:26.947Z,27.89
2023-04-18T14:51:57.120Z,28.35
2023-04-18T14:54:30.470Z,28.26
2023-04-18T14:57:02.631Z,28.73
2023-04-18T14:59:32.786Z,28.84
2023-04-18T15:02:02.907Z,29.10
2023-04-18T15:04:33.130Z,29.49
2023-04-18T15:07:04.440Z,28.84
2023-04-18T15:09:41.105Z,29.25
2023-04-18T15:12:11.479Z,29.69
2023-04-18T15:14:41.481Z,30.28
2023-04-18T15:17:11.589Z,30.06
2023-04-18T15:19:43.106Z,29.62
2023-04-18T15:22:15.051Z,30.12
2023-04-18T15:24:46.195Z,29.99
2023-04-18T15:27:16.641Z,30.28
2023-04-18T15:29:47.192Z,29.66
2023-04-18T15:32:17.383Z,29.34
2023-04-18T15:34:47.390Z,29.05
2023-04-18T15:37:17.524Z,29.08
2023-04-18T15:39:47.572Z,29.14
2023-04-18T15:42:17.571Z,28.74
2023-04-18T15:44:48.569Z,28.71
2023-04-18T15:47:18.592Z,29.67
2023-04-18T15:49:49.044Z,29.42
2023-04-18T15:52:19.153Z,30.09
2023-04-18T15:54:49.174Z,30.55
2023-04-18T15:57:19.394Z,30.89
2023-04-18T15:59:49.406Z,29.82
2023-04-18T16:02:20.422Z,30.86
2023-04-18T16:04:51.521Z,31.56
2023-04-18T16:07:22.490Z,30.68
2023-04-18T16:09:55.000Z,29.89
2023-04-18T16:12:25.054Z,29.00
2023-04-18T16:14:55.239Z,28.01
2023-04-18T16:17:25.301Z,27.20
2023-04-18T16:19:55.479Z,26.73
2023-04-18T16:22:25.653Z,26.89
2023-04-18T16:24:55.687Z,27.38
2023-04-18T16:27:25.775Z,26.56
2023-04-18T16:29:56.073Z,26.38
2023-04-18T16:32:26.247Z,27.94
2023-04-18T16:34:56.509Z,28.22
2023-04-18T16:37:26.521Z,26.01
2023-04-18T16:39:56.594Z,24.61
2023-04-18T16:42:27.633Z,26.08
2023-04-18T16:44:58.580Z,25.84
2023-04-18T16:47:28.717Z,25.51
2023-04-18T16:49:58.820Z,25.59
2023-04-18T16:52:29.019Z,25.02
2023-04-18T16:54:59.108Z,26.87
2023-04-18T16:57:29.168Z,26.83
2023-04-18T16:59:59.789Z,28.77
2023-04-18T17:02:30.195Z,29.94
2023-04-18T17:05:00.388Z,29.92
2023-04-18T17:07:31.552Z,29.70
2023-04-18T17:10:01.680Z,29.99
2023-04-18T17:12:31.823Z,30.06
2023-04-18T17:15:01.847Z,30.18
2023-04-18T17:17:31.917Z,30.64
2023-04-18T17:20:02.423Z,30.64
2023-04-18T17:22:32.408Z,30.14
2023-04-18T17:25:03.025Z,29.94
2023-04-18T17:27:33.034Z,29.61
2023-04-18T17:30:02.965Z,29.66
2023-04-18T17:32:33.715Z,29.41
2023-04-18T17:35:07.612Z,29.58
2023-04-18T17:37:37.706Z,28.42
2023-04-18T17:40:10.849Z,29.01
2023-04-18T17:42:41.204Z,28.84
2023-04-18T17:45:12.068Z,29.01
2023-04-18T17:47:42.616Z,29.80
2023-04-18T17:50:13.156Z,28.71
2023-04-18T17:52:43.255Z,27.91
2023-04-18T17:55:13.272Z,28.47
2023-04-18T17:57:43.578Z,29.01
2023-04-18T18:00:14.948Z,28.87
2023-04-18T18:02:45.926Z,29.31
2023-04-18T18:05:17.495Z,29.19
2023-04-18T18:07:48.882Z,29.16
2023-04-18T18:10:21.256Z,29.21
2023-04-18T18:12:51.621Z,29.14
2023-04-18T18:15:21.962Z,28.91
2023-04-18T18:17:52.900Z,28.88
2023-04-18T18:20:23.123Z,28.71
2023-04-18T18:22:53.856Z,28.61
2023-04-18T18:25:24.155Z,28.53
2023-04-18T18:27:55.628Z,28.67
2023-04-18T18:30:25.894Z,28.56
2023-04-18T18:32:56.885Z,28.54
2023-04-18T18:35:27.103Z,28.08
2023-04-18T18:37:56.909Z,28.26
2023-04-18T18:40:26.923Z,27.80
2023-04-18T18:42:57.896Z,27.16
2023-04-18T18:45:28.170Z,26.60
2023-04-18T18:48:01.259Z,26.41
2023-04-18T18:50:31.259Z,26.45
2023-04-18T18:53:04.083Z,26.82
2023-04-18T18:55:34.112Z,27.03
2023-04-18T18:58:04.217Z,26.55
2023-04-18T19:00:34.399Z,26.73
2023-04-18T19:03:04.461Z,26.95
2023-04-18T19:05:34.639Z,26.71
2023-04-18T19:08:06.088Z,26.72
2023-04-18T19:10:36.370Z,26.79
2023-04-18T19:13:06.786Z,26.82
2023-04-18T19:15:36.895Z,25.94
2023-04-18T19:18:07.063Z,25.35
2023-04-18T19:20:39.938Z,24.87
2023-04-18T19:23:09.917Z,25.01
2023-04-18T19:25:40.141Z,24.91
2023-04-18T19:28:09.958Z,24.14
2023-04-18T19:30:40.051Z,24.80
2023-04-18T19:33:10.263Z,25.01
2023-04-18T19:35:40.205Z,24.89
2023-04-18T19:38:10.232Z,25.14
2023-04-18T19:40:40.286Z,25.18
2023-04-18T19:43:10.549Z,24.78
2023-04-18T19:45:41.520Z,24.29
2023-04-18T19:48:11.799Z,24.40
2023-04-18T19:50:43.365Z,24.41
2023-04-18T19:53:13.568Z,24.47
2023-04-18T19:55:45.543Z,24.29
2023-04-18T19:58:36.796Z,23.93
2023-04-18T20:01:07.475Z,23.86
2023-04-18T20:03:38.134Z,23.85
2023-04-18T20:06:09.121Z,23.79
2023-04-18T20:08:45.651Z,23.61
2023-04-18T20:11:16.003Z,23.38
2023-04-18T20:13:46.208Z,23.31
2023-04-18T20:16:17.957Z,23.08
2023-04-18T20:18:48.454Z,22.87
2023-04-18T20:21:18.355Z,22.55
2023-04-18T20:23:48.206Z,22.25
2023-04-18T20:26:18.391Z,22.22
2023-04-18T20:28:48.447Z,22.28
2023-04-18T20:31:20.949Z,22.31
2023-04-18T20:33:51.350Z,22.35
2023-04-18T20:36:21.769Z,22.12
2023-04-18T20:38:52.012Z,21.93
2023-04-18T20:41:25.236Z,21.58
2023-04-18T20:43:55.386Z,21.36
2023-04-18T20:46:25.547Z,21.27
2023-04-18T20:48:55.887Z,21.10
2023-04-18T20:51:26.108Z,20.91
2023-04-18T20:53:56.160Z,20.82
2023-04-18T20:56:26.411Z,20.69
2023-04-18T20:58:56.819Z,20.54
2023-04-18T21:01:27.205Z,20.30
2023-04-18T21:03:57.449Z,20.13
2023-04-18T21:06:28.419Z,19.93
2023-04-18T21:08:58.583Z,19.87
2023-04-18T21:11:28.463Z,19.82
2023-04-18T21:13:58.321Z,19.67
2023-04-18T21:16:28.718Z,19.42
2023-04-18T21:18:58.749Z,19.27
2023-04-18T21:21:28.944Z,19.28
2023-04-18T21:23:59.008Z,19.17
2023-04-18T21:26:29.879Z,19.10
2023-04-18T21:29:02.187Z,19.00
2023-04-18T21:31:34.176Z,18.90
2023-04-18T21:34:06.430Z,18.76
2023-04-18T21:36:37.108Z,18.66
2023-04-18T21:39:07.279Z,18.53
2023-04-18T21:41:37.150Z,18.40
2023-04-18T21:44:07.366Z,18.43
2023-04-18T21:46:38.228Z,18.32
2023-04-18T21:49:09.109Z,18.21
2023-04-18T21:51:39.290Z,18.12
2023-04-18T21:54:09.260Z,17.98
2023-04-18T21:56:39.438Z,17.87
2023-04-18T21:59:11.565Z,17.75
2023-04-18T22:01:41.589Z,17.68
2023-04-18T22:04:13.808Z,17.77
2023-04-18T22:06:44.444Z,17.77
2023-04-18T22:09:14.604Z,17.77
2023-04-18T22:11:44.638Z,17.71
2023-04-18T22:14:16.076Z,17.67
2023-04-18T22:16:46.932Z,17.70
2023-04-18T22:19:17.631Z,17.57
2023-04-18T22:21:49.002Z,17.54
2023-04-18T22:24:19.539Z,17.37
2023-04-18T22:26:51.426Z,17.33
2023-04-18T22:29:21.423Z,17.20
2023-04-18T22:31:53.407Z,17.06
2023-04-18T22:34:23.379Z,16.90
2023-04-18T22:36:55.629Z,16.79
2023-04-18T22:39:26.931Z,16.73
2023-04-18T22:41:57.065Z,16.67
2023-04-18T22:44:27.020Z,16.69
2023-04-18T22:46:57.150Z,16.65
2023-04-18T22:49:27.305Z,16.55
2023-04-18T22:52:00.777Z,16.45
2023-04-18T22:54:31.000Z,16.44
2023-04-18T22:57:01.037Z,16.38
2023-04-18T22:59:31.271Z,16.31
2023-04-18T23:02:01.708Z,16.30
2023-04-18T23:04:34.139Z,16.27
2023-04-18T23:07:04.559Z,16.24
2023-04-18T23:09:36.028Z,16.22
2023-04-18T23:12:06.505Z,16.18
2023-04-18T23:14:36.562Z,16.13
2023-04-18T23:17:06.614Z,16.13
2023-04-18T23:19:36.822Z,16.06
2023-04-18T23:22:07.022Z,16.01
2023-04-18T23:24:37.036Z,16.03
2023-04-18T23:27:07.164Z,15.99
2023-04-18T23:29:40.830Z,15.99
2023-04-18T23:32:10.981Z,15.94
2023-04-18T23:34:41.752Z,15.91
2023-04-18T23:37:11.942Z,15.89
2023-04-18T23:39:42.144Z,15.86
2023-04-18T23:42:12.362Z,15.82
2023-04-18T23:44:42.159Z,15.74
2023-04-18T23:47:12.267Z,15.72
2023-04-18T23:49:46.402Z,15.65
2023-04-18T23:52:16.688Z,15.60
2023-04-18T23:54:47.181Z,15.56
2023-04-18T23:57:17.585Z,15.49
2023-04-18T23:59:48.018Z,15.45
